Time;durP1;ratioP1;P1;durP2;ratioP2;P2;SDS_P1;SDS_P2;PMS_P1;PMS_P2;Temp;Humidity;BMP_temperature;BMP_pressure;BME280_temperature;BME280_humidity;BME280_pressure;Samples;Min_cycle;Max_cycle;Signal;HPM_P1;HPM_P2
2021/03/23 00:01:07;;;;;;;0.50;0.50;;;4.80;99.90;;;;;;6086582;23;20179;-79
2021/03/23 00:03:36;;;;;;;0.57;0.57;;;4.80;99.90;;;;;;6087361;23;20180;-79
2021/03/23 00:06:03;;;;;;;0.50;0.50;;;4.80;99.90;;;;;;6086401;23;20195;-79
2021/03/23 00:08:33;;;;;;;0.50;0.50;;;4.80;99.90;;;;;;6086673;23;20668;-79
2021/03/23 00:11:07;;;;;;;0.50;0.50;;;4.80;99.90;;;;;;6086655;23;20233;-79
2021/03/23 00:13:34;;;;;;;0.50;0.50;;;4.70;99.90;;;;;;6087344;23;20167;-80
2021/03/23 00:16:00;;;;;;;0.40;0.40;;;4.70;99.90;;;;;;6087229;23;20194;-79
2021/03/23 00:18:26;;;;;;;0.50;0.50;;;4.60;99.90;;;;;;6086706;23;20202;-79
2021/03/23 00:20:53;;;;;;;0.50;0.50;;;4.60;99.90;;;;;;6086715;23;20183;-79
2021/03/23 00:23:19;;;;;;;0.50;0.50;;;4.60;99.90;;;;;;6087690;23;20190;-80
2021/03/23 00:25:46;;;;;;;0.50;0.50;;;4.50;99.90;;;;;;6087443;23;20565;-79
2021/03/23 00:28:12;;;;;;;0.50;0.50;;;4.50;99.90;;;;;;6087902;23;20217;-80
2021/03/23 00:30:38;;;;;;;0.50;0.50;;;4.50;99.90;;;;;;6087878;23;20245;-79
2021/03/23 00:33:04;;;;;;;0.50;0.50;;;4.50;99.90;;;;;;6087674;23;20179;-80
2021/03/23 00:35:30;;;;;;;0.50;0.50;;;4.50;99.90;;;;;;6087855;23;20179;-80
2021/03/23 00:38:00;;;;;;;0.50;0.50;;;4.50;99.90;;;;;;6087342;23;20872;-80
2021/03/23 00:40:30;;;;;;;0.50;0.50;;;4.50;99.90;;;;;;6087768;23;20179;-80
2021/03/23 00:42:57;;;;;;;0.50;0.50;;;4.50;99.90;;;;;;6087831;23;20168;-80
2021/03/23 00:45:25;;;;;;;0.50;0.50;;;4.50;99.90;;;;;;6087795;23;20180;-79
2021/03/23 00:47:51;;;;;;;0.50;0.50;;;4.50;99.90;;;;;;6087536;23;20186;-80
2021/03/23 00:50:18;;;;;;;0.50;0.50;;;4.50;99.90;;;;;;6087732;23;20190;-80
2021/03/23 00:52:44;;;;;;;0.50;0.50;;;4.50;99.90;;;;;;6087756;23;20186;-80
2021/03/23 00:55:12;;;;;;;0.50;0.50;;;4.50;99.90;;;;;;6087539;23;20171;-80
2021/03/23 00:57:38;;;;;;;0.50;0.50;;;4.40;99.90;;;;;;6087932;23;20226;-80
2021/03/23 01:00:07;;;;;;;0.60;0.60;;;4.40;99.90;;;;;;6087882;23;20532;-80
2021/03/23 01:02:33;;;;;;;0.50;0.50;;;4.40;99.90;;;;;;6087829;23;20538;-79
2021/03/23 01:04:59;;;;;;;0.50;0.50;;;4.40;99.90;;;;;;6087686;23;20190;-79
2021/03/23 01:07:25;;;;;;;0.50;0.50;;;4.40;99.90;;;;;;6087366;23;20203;-80
2021/03/23 01:09:51;;;;;;;0.50;0.50;;;4.40;99.90;;;;;;6087716;23;20242;-79
2021/03/23 01:12:19;;;;;;;0.40;0.40;;;4.30;99.90;;;;;;6087762;23;20183;-80
2021/03/23 01:14:45;;;;;;;0.50;0.50;;;4.30;99.90;;;;;;6087322;23;20179;-79
2021/03/23 01:17:11;;;;;;;0.50;0.50;;;4.30;99.90;;;;;;6087203;23;20210;-78
2021/03/23 01:19:37;;;;;;;0.50;0.50;;;4.30;99.90;;;;;;6087733;23;20509;-79
2021/03/23 01:22:04;;;;;;;0.50;0.50;;;4.30;99.90;;;;;;6087403;23;20695;-80
2021/03/23 01:24:30;;;;;;;0.50;0.50;;;4.20;99.90;;;;;;6087640;23;20180;-79
2021/03/23 01:26:57;;;;;;;0.47;0.47;;;4.20;99.90;;;;;;6087609;23;20220;-79
2021/03/23 01:29:24;;;;;;;0.50;0.50;;;4.20;99.90;;;;;;6087725;23;20183;-79
2021/03/23 01:31:50;;;;;;;0.50;0.50;;;4.10;99.90;;;;;;6087203;23;20648;-79
2021/03/23 01:34:16;;;;;;;0.50;0.50;;;4.10;99.90;;;;;;6088006;23;20213;-79
2021/03/23 01:36:42;;;;;;;0.50;0.50;;;4.10;99.90;;;;;;6087714;23;20233;-79
2021/03/23 01:39:08;;;;;;;0.40;0.40;;;4.10;99.90;;;;;;6087825;23;20183;-80
2021/03/23 01:41:34;;;;;;;0.50;0.50;;;4.00;99.90;;;;;;6087812;23;20183;-80
2021/03/23 01:44:01;;;;;;;0.50;0.50;;;4.00;99.90;;;;;;6087593;23;20193;-79
2021/03/23 01:46:41;;;;;;;0.50;0.50;;;3.90;99.90;;;;;;6087669;23;20183;-80
2021/03/23 01:49:11;;;;;;;0.50;0.50;;;3.90;99.90;;;;;;6087647;23;20170;-79
2021/03/23 01:51:39;;;;;;;0.50;0.50;;;3.90;99.90;;;;;;6087479;23;20199;-79
2021/03/23 01:54:11;;;;;;;0.50;0.50;;;3.80;99.90;;;;;;6087667;23;20179;-79
2021/03/23 01:56:37;;;;;;;0.50;0.50;;;3.80;99.90;;;;;;6088009;23;20596;-79
2021/03/23 01:59:06;;;;;;;0.50;0.50;;;3.80;99.90;;;;;;6087848;23;20564;-79
2021/03/23 02:01:32;;;;;;;0.50;0.50;;;3.80;99.90;;;;;;6087590;23;20551;-79
2021/03/23 02:04:00;;;;;;;0.50;0.50;;;3.80;99.90;;;;;;6087959;23;20492;-79
2021/03/23 02:06:34;;;;;;;0.50;0.50;;;3.80;99.90;;;;;;6087648;23;20210;-79
2021/03/23 02:09:02;;;;;;;0.50;0.50;;;3.80;99.90;;;;;;6087633;23;20534;-79
2021/03/23 02:11:31;;;;;;;0.50;0.50;;;3.70;99.90;;;;;;6087592;23;20265;-79
2021/03/23 02:13:58;;;;;;;0.50;0.50;;;3.80;99.90;;;;;;6087493;23;20184;-79
2021/03/23 02:16:24;;;;;;;0.50;0.50;;;3.90;99.90;;;;;;6087465;23;20183;-79
2021/03/23 02:18:51;;;;;;;0.50;0.50;;;3.90;99.90;;;;;;6087112;23;20195;-80
2021/03/23 02:21:19;;;;;;;0.50;0.50;;;3.90;99.90;;;;;;6087653;23;20190;-79
2021/03/23 02:23:48;;;;;;;0.50;0.50;;;3.90;99.90;;;;;;6087234;23;20639;-79
2021/03/23 02:26:18;;;;;;;0.50;0.50;;;5.90;99.90;;;;;;6087714;23;20183;-79
2021/03/23 02:28:52;;;;;;;0.40;0.40;;;3.90;99.90;;;;;;6087821;23;20672;-79
2021/03/23 02:31:20;;;;;;;0.50;0.50;;;3.90;99.90;;;;;;6087288;23;20603;-78
2021/03/23 02:33:46;;;;;;;0.40;0.40;;;3.90;99.90;;;;;;6087215;23;20322;-79
2021/03/23 02:36:12;;;;;;;0.50;0.50;;;3.90;99.90;;;;;;6087945;23;20186;-78
2021/03/23 02:38:39;;;;;;;0.50;0.50;;;3.90;99.90;;;;;;6087964;23;20576;-79
2021/03/23 02:41:06;;;;;;;0.50;0.50;;;3.90;99.90;;;;;;6087831;23;20179;-78
2021/03/23 02:43:32;;;;;;;0.50;0.50;;;3.90;99.90;;;;;;6087869;23;20183;-78
2021/03/23 02:45:59;;;;;;;0.50;0.50;;;3.90;99.90;;;;;;6087711;23;20514;-78
2021/03/23 02:48:25;;;;;;;0.50;0.50;;;3.90;99.90;;;;;;6087859;23;20308;-78
2021/03/23 02:50:51;;;;;;;0.50;0.50;;;3.90;99.90;;;;;;6087467;23;20301;-79
2021/03/23 02:53:18;;;;;;;0.50;0.50;;;3.90;99.90;;;;;;6088228;23;20183;-79
2021/03/23 02:55:45;;;;;;;0.50;0.50;;;3.90;99.90;;;;;;6088147;23;20352;-79
2021/03/23 02:58:11;;;;;;;0.50;0.50;;;3.90;99.90;;;;;;6087709;23;20357;-79
2021/03/23 03:00:38;;;;;;;0.50;0.50;;;3.90;99.90;;;;;;6087736;23;20191;-78
2021/03/23 03:03:04;;;;;;;0.50;0.50;;;3.90;99.90;;;;;;6087679;23;20196;-79
2021/03/23 03:05:30;;;;;;;0.50;0.50;;;3.80;99.90;;;;;;6087740;23;20210;-79
2021/03/23 03:07:56;;;;;;;0.50;0.50;;;3.80;99.90;;;;;;6087773;23;20200;-79
2021/03/23 03:10:23;;;;;;;0.50;0.50;;;3.80;99.90;;;;;;6088731;23;20180;-78
2021/03/23 03:12:50;;;;;;;0.50;0.50;;;3.90;99.90;;;;;;6088386;23;20183;-79
2021/03/23 03:15:16;;;;;;;0.50;0.50;;;3.90;99.90;;;;;;6088078;23;20206;-79
2021/03/23 03:17:42;;;;;;;0.50;0.50;;;3.80;99.90;;;;;;6087628;23;20225;-79
2021/03/23 03:20:11;;;;;;;0.50;0.50;;;3.80;99.90;;;;;;6087288;23;20179;-79
2021/03/23 03:22:37;;;;;;;0.50;0.50;;;3.80;99.90;;;;;;6086987;23;20628;-79
2021/03/23 03:25:04;;;;;;;0.50;0.50;;;3.80;99.90;;;;;;6087254;23;20254;-79
2021/03/23 03:27:30;;;;;;;0.50;0.50;;;3.80;99.90;;;;;;6087526;23;20179;-79
2021/03/23 03:29:57;;;;;;;0.50;0.50;;;3.80;99.90;;;;;;6087319;23;20190;-79
2021/03/23 03:32:24;;;;;;;0.50;0.50;;;4.00;99.90;;;;;;6087403;23;20187;-79
2021/03/23 03:34:50;;;;;;;0.50;0.50;;;3.80;99.90;;;;;;6087266;23;20183;-79
2021/03/23 03:37:16;;;;;;;0.50;0.50;;;3.80;99.90;;;;;;6087190;23;20199;-79
2021/03/23 03:39:42;;;;;;;0.50;0.50;;;3.80;99.90;;;;;;6087387;23;20559;-79
2021/03/23 03:42:09;;;;;;;0.50;0.50;;;3.80;99.90;;;;;;6087123;23;20187;-79
2021/03/23 03:44:35;;;;;;;0.50;0.50;;;3.80;99.90;;;;;;6087140;23;20183;-79
2021/03/23 03:47:02;;;;;;;0.50;0.50;;;3.80;99.90;;;;;;6087041;23;20282;-79
2021/03/23 03:49:28;;;;;;;0.50;0.50;;;3.80;99.90;;;;;;6086908;23;20512;-79
2021/03/23 03:51:55;;;;;;;0.50;0.50;;;3.80;99.90;;;;;;6087302;23;20203;-80
2021/03/23 03:54:21;;;;;;;0.50;0.50;;;3.70;99.90;;;;;;6086920;23;20202;-79
2021/03/23 03:56:47;;;;;;;0.50;0.50;;;3.80;99.90;;;;;;6087042;23;20179;-79
2021/03/23 03:59:13;;;;;;;0.50;0.50;;;3.80;99.90;;;;;;6087011;23;20538;-80
2021/03/23 04:01:40;;;;;;;0.50;0.50;;;3.80;99.90;;;;;;6087620;23;20179;-79
2021/03/23 04:04:07;;;;;;;0.50;0.50;;;3.70;99.90;;;;;;6087202;23;20183;-79
2021/03/23 04:06:33;;;;;;;0.50;0.50;;;3.80;99.90;;;;;;6086863;23;20261;-79
2021/03/23 04:08:59;;;;;;;0.50;0.50;;;3.70;99.90;;;;;;6086865;23;20179;-79
2021/03/23 04:11:25;;;;;;;0.50;0.50;;;3.70;99.90;;;;;;6086608;23;20190;-79
2021/03/23 04:13:51;;;;;;;0.50;0.50;;;3.70;99.90;;;;;;6086756;23;20179;-79
2021/03/23 04:16:17;;;;;;;0.50;0.50;;;3.70;99.90;;;;;;6086841;23;20194;-79
2021/03/23 04:18:44;;;;;;;0.50;0.50;;;3.70;99.90;;;;;;6086819;23;20203;-79
2021/03/23 04:21:11;;;;;;;0.50;0.50;;;3.80;99.90;;;;;;6086773;23;20187;-79
2021/03/23 04:23:39;;;;;;;0.50;0.50;;;3.80;99.90;;;;;;6086965;23;20187;-79
2021/03/23 04:26:07;;;;;;;0.50;0.50;;;3.70;99.90;;;;;;6087099;23;20183;-79
2021/03/23 04:28:33;;;;;;;0.50;0.50;;;3.70;99.90;;;;;;6086835;23;20245;-79
2021/03/23 04:31:00;;;;;;;0.50;0.50;;;3.80;99.90;;;;;;6087190;23;20186;-79
2021/03/23 04:33:28;;;;;;;0.50;0.50;;;5.50;99.90;;;;;;6087176;23;20685;-79
2021/03/23 04:35:56;;;;;;;0.50;0.50;;;3.70;99.90;;;;;;6086845;23;20270;-79
2021/03/23 04:38:26;;;;;;;0.50;0.50;;;3.70;99.90;;;;;;6086471;23;20192;-79
2021/03/23 04:40:53;;;;;;;0.50;0.50;;;3.70;99.90;;;;;;6086492;23;20183;-79
2021/03/23 04:43:23;;;;;;;0.50;0.50;;;3.70;99.90;;;;;;6086702;23;20179;-79
2021/03/23 04:45:49;;;;;;;0.50;0.50;;;3.70;99.90;;;;;;6086839;23;20183;-79
2021/03/23 04:48:16;;;;;;;0.50;0.50;;;3.70;99.90;;;;;;6087027;23;20225;-80
2021/03/23 04:50:42;;;;;;;0.50;0.50;;;3.70;99.90;;;;;;6087237;23;20204;-80
2021/03/23 04:53:18;;;;;;;0.50;0.50;;;3.70;99.90;;;;;;6086292;23;20214;-80
2021/03/23 04:55:45;;;;;;;0.50;0.50;;;3.70;99.90;;;;;;6086196;23;20171;-79
2021/03/23 04:58:11;;;;;;;0.50;0.50;;;3.80;99.90;;;;;;6086475;23;20203;-79
2021/03/23 05:00:37;;;;;;;0.50;0.50;;;3.70;99.90;;;;;;6086534;23;20456;-80
2021/03/23 05:03:04;;;;;;;0.50;0.50;;;3.80;99.90;;;;;;6086149;23;20194;-79
2021/03/23 05:05:30;;;;;;;0.50;0.50;;;3.80;99.90;;;;;;6086559;23;20229;-80
2021/03/23 05:07:56;;;;;;;0.60;0.60;;;3.80;99.90;;;;;;6086716;23;20210;-79
2021/03/23 05:10:22;;;;;;;0.50;0.50;;;3.80;99.90;;;;;;6087881;23;20183;-84
2021/03/23 05:12:49;;;;;;;0.50;0.50;;;3.80;99.90;;;;;;6088594;23;20178;-80
2021/03/23 05:15:16;;;;;;;0.50;0.50;;;3.80;99.90;;;;;;6088548;23;20179;-81
2021/03/23 05:17:42;;;;;;;0.50;0.50;;;3.80;99.90;;;;;;6087658;23;20191;-81
2021/03/23 05:20:09;;;;;;;0.50;0.50;;;3.80;99.90;;;;;;6087827;23;20183;-81
2021/03/23 05:22:36;;;;;;;0.50;0.50;;;3.80;99.90;;;;;;6087843;23;20190;-81
2021/03/23 05:25:03;;;;;;;0.60;0.60;;;3.80;99.90;;;;;;6087212;23;20179;-81
2021/03/23 05:27:29;;;;;;;0.50;0.50;;;3.80;99.90;;;;;;6087692;23;20259;-81
2021/03/23 05:29:56;;;;;;;0.50;0.50;;;3.80;99.90;;;;;;6087357;23;20214;-82
2021/03/23 05:32:23;;;;;;;0.50;0.50;;;3.80;99.90;;;;;;6087630;23;20179;-81
2021/03/23 05:34:55;;;;;;;0.50;0.50;;;3.80;99.90;;;;;;6087637;23;20183;-81
2021/03/23 05:37:21;;;;;;;0.50;0.50;;;3.80;99.90;;;;;;6087705;23;20574;-81
2021/03/23 05:39:48;;;;;;;0.50;0.50;;;5.20;99.90;;;;;;6087393;23;20720;-81
2021/03/23 05:42:24;;;;;;;0.50;0.50;;;3.80;99.90;;;;;;6087665;23;20187;-81
2021/03/23 05:45:04;;;;;;;0.60;0.60;;;4.00;99.90;;;;;;6087971;23;20163;-81
2021/03/23 05:47:34;;;;;;;0.50;0.50;;;3.50;99.90;;;;;;6088185;23;20450;-81
2021/03/23 05:50:10;;;;;;;0.55;0.55;;;3.90;99.90;;;;;;6087933;23;20182;-80
2021/03/23 05:52:40;;;;;;;0.50;0.50;;;3.90;99.90;;;;;;6087656;23;20186;-81
2021/03/23 05:55:34;;;;;;;0.50;0.50;;;3.90;99.90;;;;;;6087740;23;20494;-80
2021/03/23 05:58:02;;;;;;;0.50;0.50;;;3.90;99.90;;;;;;6087737;23;20184;-83
2021/03/23 06:00:31;;;;;;;0.50;0.50;;;3.90;99.90;;;;;;6087661;23;20179;-83
2021/03/23 06:03:06;;;;;;;0.50;0.50;;;4.00;99.90;;;;;;6088110;23;20183;-83
2021/03/23 06:05:45;;;;;;;0.50;0.50;;;4.00;99.90;;;;;;6087588;23;20167;-82
2021/03/23 06:08:25;;;;;;;0.50;0.50;;;4.10;99.90;;;;;;6087697;23;20491;-83
2021/03/23 06:11:15;;;;;;;0.50;0.50;;;4.10;99.90;;;;;;6087855;23;20221;-83
2021/03/23 06:13:47;;;;;;;0.50;0.50;;;4.10;99.90;;;;;;6063249;23;20190;-81
2021/03/23 06:16:26;;;;;;;0.50;0.50;;;4.10;99.90;;;;;;6087597;23;20171;-80
2021/03/23 06:18:57;;;;;;;0.50;0.50;;;4.10;99.90;;;;;;6087013;23;20183;-83
2021/03/23 06:21:31;;;;;;;0.50;0.50;;;4.10;99.90;;;;;;6087340;23;20167;-83
2021/03/23 06:24:07;;;;;;;0.50;0.50;;;4.20;99.90;;;;;;6087680;23;20164;-80
2021/03/23 06:26:41;;;;;;;0.50;0.50;;;4.20;99.90;;;;;;6087339;23;20686;-80
2021/03/23 06:29:19;;;;;;;0.57;0.57;;;4.20;99.90;;;;;;6087605;23;20170;-81
2021/03/23 06:32:09;;;;;;;0.50;0.50;;;4.30;99.90;;;;;;6087569;23;20171;-81
2021/03/23 06:34:37;;;;;;;0.50;0.50;;;4.20;99.90;;;;;;6087682;23;20248;-80
2021/03/23 06:37:19;;;;;;;0.50;0.50;;;4.30;99.90;;;;;;6087983;23;20179;-80
2021/03/23 06:39:46;;;;;;;0.50;0.50;;;4.20;99.90;;;;;;6087428;23;20179;-81
2021/03/23 06:42:12;;;;;;;0.50;0.50;;;4.30;99.90;;;;;;6087308;23;20252;-81
2021/03/23 06:44:41;;;;;;;0.50;0.50;;;4.40;99.90;;;;;;6063838;23;20187;-82
2021/03/23 06:47:37;;;;;;;0.50;0.50;;;4.30;99.90;;;;;;6082960;23;20191;-81
2021/03/23 06:50:24;;;;;;;0.52;0.52;;;4.30;99.90;;;;;;6084590;23;20184;-80
2021/03/23 06:53:07;;;;;;;0.50;0.50;;;4.30;99.90;;;;;;6086737;23;20163;-82
2021/03/23 06:55:34;;;;;;;0.50;0.50;;;4.30;99.90;;;;;;6085241;23;20182;-81
2021/03/23 06:58:01;;;;;;;0.55;0.55;;;4.40;99.90;;;;;;6084503;23;20206;-78
2021/03/23 07:00:31;;;;;;;0.50;0.50;;;4.30;99.90;;;;;;6085932;23;20509;-77
2021/03/23 07:03:13;;;;;;;0.50;0.50;;;4.40;99.90;;;;;;6085995;23;20183;-82
2021/03/23 07:05:52;;;;;;;0.50;0.50;;;4.40;99.90;;;;;;6086343;23;20171;-85
2021/03/23 07:08:22;;;;;;;0.50;0.50;;;4.40;99.90;;;;;;6086092;23;20213;-84
2021/03/23 07:11:08;;;;;;;0.50;0.50;;;4.50;99.90;;;;;;6086752;23;20519;-83
2021/03/23 07:13:38;;;;;;;0.50;0.50;;;4.50;99.90;;;;;;6086058;23;20620;-81
2021/03/23 07:16:19;;;;;;;0.50;0.50;;;4.60;99.90;;;;;;6086962;23;20183;-82
2021/03/23 07:18:50;;;;;;;0.50;0.50;;;6.30;99.90;;;;;;6086433;23;20191;-80
2021/03/23 07:21:42;;;;;;;0.50;0.50;;;4.60;99.90;;;;;;6086958;23;20168;-84
2021/03/23 07:24:11;;;;;;;0.50;0.50;;;4.60;99.90;;;;;;6086344;23;20194;-82
2021/03/23 07:26:39;;;;;;;0.50;0.50;;;4.70;99.90;;;;;;6087739;23;20206;-81
2021/03/23 07:29:27;;;;;;;0.60;0.60;;;4.70;99.90;;;;;;6079128;23;20190;-82
2021/03/23 07:32:05;;;;;;;0.50;0.50;;;4.70;99.90;;;;;;6086011;23;20221;-83
2021/03/23 07:34:37;;;;;;;0.50;0.50;;;4.70;99.90;;;;;;6087287;23;20205;-82
2021/03/23 07:37:09;;;;;;;0.50;0.50;;;4.70;99.90;;;;;;6086772;23;20217;-83
2021/03/23 07:39:41;;;;;;;0.50;0.50;;;4.70;99.90;;;;;;6086502;23;20195;-79
2021/03/23 07:42:16;;;;;;;0.50;0.50;;;4.80;99.90;;;;;;6087339;23;20662;-81
2021/03/23 07:44:46;;;;;;;0.50;0.50;;;4.80;99.90;;;;;;6085707;23;20254;-82
2021/03/23 07:47:20;;;;;;;0.50;0.50;;;4.80;99.90;;;;;;6087337;23;20186;-81
2021/03/23 07:49:51;;;;;;;0.50;0.50;;;4.80;99.90;;;;;;6086870;23;20171;-82
2021/03/23 07:52:23;;;;;;;0.50;0.50;;;4.80;99.90;;;;;;6086810;23;20270;-81
2021/03/23 07:54:50;;;;;;;0.50;0.50;;;6.10;99.90;;;;;;6086948;23;20171;-81
2021/03/23 07:57:41;;;;;;;0.50;0.50;;;4.70;99.90;;;;;;6085727;23;20706;-81
2021/03/23 08:00:31;;;;;;;0.60;0.60;;;4.90;99.90;;;;;;6084066;23;20166;-81
2021/03/23 08:03:28;;;;;;;0.57;0.57;;;4.90;99.90;;;;;;6085886;23;20329;-81
2021/03/23 08:06:09;;;;;;;0.50;0.50;;;4.90;99.90;;;;;;6086827;23;20167;-81
2021/03/23 08:08:46;;;;;;;0.50;0.50;;;4.90;99.90;;;;;;6086478;23;20167;-81
2021/03/23 08:11:30;;;;;;;0.50;0.50;;;5.00;99.90;;;;;;6086801;23;20250;-80
2021/03/23 08:14:06;;;;;;;0.50;0.50;;;5.00;99.90;;;;;;6085939;23;20163;-81
2021/03/23 08:16:56;;;;;;;0.50;0.50;;;5.00;99.90;;;;;;6087224;23;20815;-82
2021/03/23 08:19:42;;;;;;;0.60;0.60;;;5.00;99.90;;;;;;6090341;23;20183;-83
2021/03/23 08:22:52;;;;;;;0.55;0.55;;;5.00;99.90;;;;;;6088804;23;20167;-88
2021/03/23 08:25:27;;;;;;;0.50;0.50;;;5.00;99.90;;;;;;6081919;23;20555;-82
2021/03/23 08:28:34;;;;;;;0.50;0.50;;;5.10;99.90;;;;;;6086984;23;20167;-84
2021/03/23 08:31:23;;;;;;;0.50;0.50;;;5.00;99.90;;;;;;6086426;23;20167;-83
2021/03/23 08:34:02;;;;;;;0.60;0.60;;;5.10;99.90;;;;;;6082029;23;20207;-83
2021/03/23 08:36:41;;;;;;;0.50;0.50;;;5.10;99.90;;;;;;6080671;23;20253;-83
2021/03/23 08:39:20;;;;;;;0.50;0.50;;;5.10;99.90;;;;;;6085604;23;20193;-82
2021/03/23 08:41:56;;;;;;;0.50;0.50;;;5.10;99.90;;;;;;6086889;23;20172;-82
2021/03/23 08:44:33;;;;;;;0.50;0.50;;;5.20;99.90;;;;;;6084795;23;20178;-83
2021/03/23 08:47:08;;;;;;;0.50;0.50;;;5.20;99.90;;;;;;6086398;23;20171;-82
2021/03/23 08:49:34;;;;;;;0.50;0.50;;;5.20;99.90;;;;;;6087201;23;20163;-83
2021/03/23 08:52:01;;;;;;;0.50;0.50;;;5.20;99.90;;;;;;6087105;23;20257;-81
2021/03/23 08:54:49;;;;;;;0.50;0.50;;;5.20;99.90;;;;;;6087102;23;20187;-81
2021/03/23 08:57:15;;;;;;;0.50;0.50;;;5.20;99.90;;;;;;6084420;23;20632;-82
2021/03/23 08:59:56;;;;;;;0.50;0.50;;;5.30;99.90;;;;;;6085738;23;20282;-81
2021/03/23 09:02:47;;;;;;;0.50;0.50;;;5.20;99.90;;;;;;6086989;23;20169;-81
2021/03/23 09:05:53;;;;;;;0.57;0.57;;;5.20;99.90;;;;;;6087718;23;20818;-80
2021/03/23 09:08:49;;;;;;;0.50;0.50;;;5.30;99.90;;;;;;6085394;23;20179;-83
2021/03/23 09:11:39;;;;;;;0.50;0.50;;;5.30;99.90;;;;;;6087689;23;20541;-86
2021/03/23 09:14:19;;;;;;;0.50;0.50;;;5.30;99.90;;;;;;6086459;23;20535;-84
2021/03/23 09:16:52;;;;;;;0.50;0.50;;;5.30;99.90;;;;;;6088858;23;20684;-84
2021/03/23 09:19:38;;;;;;;0.60;0.60;;;5.30;99.90;;;;;;6088015;23;20210;-84
2021/03/23 09:22:34;;;;;;;0.60;0.60;;;5.40;99.90;;;;;;6088005;23;20689;-85
2021/03/23 09:25:44;;;;;;;0.50;0.50;;;5.60;99.90;;;;;;6078254;23;20245;-83
2021/03/23 09:28:40;;;;;;;0.50;0.50;;;5.30;99.90;;;;;;6087967;23;20164;-84
2021/03/23 09:31:07;;;;;;;0.50;0.50;;;5.40;99.90;;;;;;6091994;23;20452;-85
2021/03/23 09:33:41;;;;;;;0.50;0.50;;;5.40;99.90;;;;;;6094050;23;20187;-84
2021/03/23 09:36:37;;;;;;;0.50;0.50;;;5.50;99.90;;;;;;6089819;23;20170;-84
2021/03/23 09:39:43;;;;;;;0.50;0.50;;;5.50;99.90;;;;;;6089635;23;20187;-83
2021/03/23 09:42:36;;;;;;;0.60;0.60;;;5.50;99.90;;;;;;6088455;23;20242;-84
2021/03/23 09:45:22;;;;;;;0.50;0.50;;;5.50;99.90;;;;;;6087440;23;20250;-84
2021/03/23 09:48:35;;;;;;;0.50;0.50;;;5.50;99.90;;;;;;6088602;23;20175;-83
2021/03/23 09:51:11;;;;;;;0.50;0.50;;;5.60;99.90;;;;;;6088756;23;20252;-84
2021/03/23 09:53:41;;;;;;;0.50;0.50;;;5.60;99.90;;;;;;6090361;23;20160;-84
2021/03/23 09:56:11;;;;;;;0.50;0.50;;;5.60;99.90;;;;;;6090954;23;20248;-85
2021/03/23 09:58:39;;;;;;;0.60;0.60;;;5.60;99.90;;;;;;6097140;23;20203;-83
2021/03/23 10:01:21;;;;;;;0.50;0.50;;;5.60;99.90;;;;;;6104013;23;20176;-85
2021/03/23 10:03:49;;;;;;;0.60;0.60;;;5.70;99.90;;;;;;6094207;23;20210;-84
2021/03/23 10:06:22;;;;;;;0.60;0.60;;;5.70;99.90;;;;;;6087834;23;20693;-84
2021/03/23 10:09:07;;;;;;;0.60;0.60;;;5.70;99.90;;;;;;6091317;23;20187;-85
2021/03/23 10:11:36;;;;;;;0.57;0.57;;;5.70;99.90;;;;;;6103750;23;20175;-85
2021/03/23 10:14:11;;;;;;;0.50;0.50;;;5.70;99.90;;;;;;6099527;23;20175;-85
2021/03/23 10:16:42;;;;;;;0.50;0.50;;;5.70;99.90;;;;;;6100409;23;20193;-84
2021/03/23 10:19:11;;;;;;;0.50;0.50;;;5.80;99.90;;;;;;6090730;23;20199;-84
2021/03/23 10:21:45;;;;;;;0.60;0.60;;;6.10;99.90;;;;;;6090144;23;20908;-84
2021/03/23 10:24:15;;;;;;;0.60;0.60;;;5.80;99.90;;;;;;6086260;23;20171;-83
2021/03/23 10:26:45;;;;;;;0.50;0.50;;;5.90;99.90;;;;;;6092937;23;20163;-85
2021/03/23 10:29:24;;;;;;;0.50;0.50;;;5.60;99.90;;;;;;6093443;23;20228;-85
2021/03/23 10:31:52;;;;;;;0.50;0.50;;;5.10;99.90;;;;;;6094018;23;20183;-84
2021/03/23 10:34:24;;;;;;;0.52;0.52;;;5.70;99.90;;;;;;6106270;23;20231;-83
2021/03/23 10:36:54;;;;;;;0.60;0.60;;;5.50;99.90;;;;;;6103163;23;20179;-84
2021/03/23 10:39:50;;;;;;;0.50;0.50;;;6.00;99.90;;;;;;6097392;23;20195;-86
2021/03/23 10:42:22;;;;;;;0.50;0.50;;;6.00;99.90;;;;;;6110705;23;20742;-85
2021/03/23 10:44:50;;;;;;;0.50;0.50;;;5.40;99.90;;;;;;6110059;23;20179;-84
2021/03/23 10:47:40;;;;;;;0.57;0.57;;;6.50;99.90;;;;;;6113307;23;20183;-84
2021/03/23 10:50:35;;;;;;;0.60;0.60;;;7.90;99.90;;;;;;6109533;23;20179;-85
2021/03/23 10:53:22;;;;;;;0.50;0.50;;;6.80;99.90;;;;;;6105301;23;20186;-86
2021/03/23 10:55:51;;;;;;;0.50;0.50;;;6.20;99.90;;;;;;6090936;23;20182;-84
2021/03/23 10:58:23;;;;;;;0.60;0.60;;;5.60;99.90;;;;;;6089922;23;20210;-85
2021/03/23 11:00:51;;;;;;;0.50;0.50;;;6.30;99.90;;;;;;6088961;23;20160;-84
2021/03/23 11:03:31;;;;;;;0.60;0.60;;;5.50;99.90;;;;;;6090481;23;20179;-84
2021/03/23 11:05:59;;;;;;;0.52;0.52;;;8.20;99.90;;;;;;6087670;23;20509;-84
2021/03/23 11:08:26;;;;;;;0.60;0.60;;;7.00;99.90;;;;;;6087713;23;20258;-84
2021/03/23 11:10:56;;;;;;;0.50;0.50;;;6.40;99.90;;;;;;6087936;23;20179;-84
2021/03/23 11:13:23;;;;;;;0.50;0.50;;;8.50;99.90;;;;;;6088368;23;20194;-84
2021/03/23 11:15:52;;;;;;;0.50;0.50;;;6.30;99.90;;;;;;6087851;23;20254;-84
2021/03/23 11:18:23;;;;;;;0.60;0.60;;;7.70;99.90;;;;;;6087711;23;20205;-84
2021/03/23 11:20:52;;;;;;;0.60;0.60;;;6.40;99.90;;;;;;6088798;23;20552;-84
2021/03/23 11:23:30;;;;;;;0.55;0.55;;;6.50;99.90;;;;;;6089500;23;20206;-89
2021/03/23 11:25:58;;;;;;;0.60;0.60;;;6.50;99.90;;;;;;6102530;22;20237;-84
2021/03/23 11:31:26;;;;;;;0.55;0.55;;;6.50;99.90;;;;;;6109284;23;20199;-86
2021/03/23 11:34:00;;;;;;;0.60;0.60;;;6.50;99.90;;;;;;5967467;24;20190;-83
2021/03/23 11:36:28;;;;;;;0.50;0.50;;;6.50;99.90;;;;;;6066428;23;20179;-84
2021/03/23 11:39:00;;;;;;;0.50;0.50;;;8.40;99.90;;;;;;6105088;23;20211;-84
2021/03/23 11:41:32;;;;;;;0.50;0.50;;;6.40;99.90;;;;;;6108310;22;20243;-83
2021/03/23 11:44:01;;;;;;;0.50;0.50;;;7.00;99.90;;;;;;6115087;23;20197;-82
2021/03/23 11:46:34;;;;;;;0.60;0.60;;;6.40;99.90;;;;;;6090217;23;20179;-82
2021/03/23 11:49:06;;;;;;;0.60;0.60;;;6.70;99.90;;;;;;6088836;23;20160;-82
2021/03/23 11:56:44;;;;;;;0.50;0.50;;;6.80;99.90;;;;;;6092806;22;20228;-84
2021/03/23 11:59:12;;;;;;;0.60;0.60;;;6.90;99.90;;;;;;6105228;23;20222;-85
2021/03/23 12:01:46;;;;;;;0.60;0.60;;;7.00;99.90;;;;;;6103188;23;20169;-86
2021/03/23 12:04:25;;;;;;;0.50;0.50;;;7.70;99.90;;;;;;6112754;23;20187;-85
2021/03/23 12:07:06;;;;;;;0.60;0.60;;;6.90;99.90;;;;;;6111290;23;20171;-85
2021/03/23 12:09:50;;;;;;;0.60;0.60;;;6.80;99.90;;;;;;6105471;23;20202;-85
2021/03/23 12:12:26;;;;;;;0.60;0.60;;;7.00;99.90;;;;;;6101984;23;20175;-85
2021/03/23 12:15:04;;;;;;;0.60;0.60;;;6.80;99.90;;;;;;6096552;23;20735;-85
2021/03/23 12:17:36;;;;;;;0.60;0.60;;;6.90;99.90;;;;;;6095569;23;20179;-85
2021/03/23 12:20:08;;;;;;;0.60;0.60;;;6.70;99.90;;;;;;6099218;23;20187;-85
2021/03/23 12:22:35;;;;;;;0.50;0.50;;;6.80;99.90;;;;;;6097370;23;20218;-85
2021/03/23 12:25:10;;;;;;;0.60;0.60;;;6.80;99.90;;;;;;6107841;23;20236;-86
2021/03/23 12:27:38;;;;;;;0.60;0.60;;;6.80;99.90;;;;;;6088809;23;20178;-89
2021/03/23 12:30:16;;;;;;;0.57;0.57;;;6.80;99.90;;;;;;6091323;23;20260;-85
2021/03/23 12:32:43;;;;;;;0.50;0.50;;;6.80;99.90;;;;;;6090395;23;20156;-85
2021/03/23 12:35:17;;;;;;;0.60;0.60;;;6.80;99.90;;;;;;6088367;23;20534;-86
2021/03/23 12:37:46;;;;;;;0.50;0.50;;;6.80;99.90;;;;;;6086786;23;20179;-86
2021/03/23 12:40:18;;;;;;;0.60;0.60;;;8.20;99.90;;;;;;6086026;23;20175;-86
2021/03/23 12:42:45;;;;;;;0.57;0.57;;;6.80;99.90;;;;;;6088741;23;20167;-85
2021/03/23 12:45:21;;;;;;;0.50;0.50;;;6.80;99.90;;;;;;6079055;23;20186;-85
2021/03/23 12:47:51;;;;;;;0.60;0.60;;;6.70;99.90;;;;;;6093605;22;20185;-85
2021/03/23 12:50:19;;;;;;;0.50;0.50;;;6.90;99.90;;;;;;6086863;23;20692;-84
2021/03/23 12:53:06;;;;;;;0.60;0.60;;;6.80;99.90;;;;;;6090371;23;20180;-85
2021/03/23 12:55:55;;;;;;;0.60;0.60;;;8.00;99.90;;;;;;6086521;23;20206;-85
2021/03/23 12:58:33;;;;;;;0.60;0.60;;;8.10;99.90;;;;;;6091279;23;20557;-84
2021/03/23 13:01:01;;;;;;;0.50;0.50;;;8.90;99.90;;;;;;6087173;23;20207;-86
2021/03/23 13:03:29;;;;;;;0.57;0.57;;;7.00;99.90;;;;;;6086917;23;20548;-86
2021/03/23 13:06:08;;;;;;;0.60;0.60;;;7.00;99.90;;;;;;6089943;23;20179;-86
2021/03/23 13:08:36;;;;;;;0.50;0.50;;;6.30;99.90;;;;;;6087810;23;20171;-84
2021/03/23 13:11:19;;;;;;;0.60;0.60;;;7.20;99.90;;;;;;6086453;23;20190;-85
2021/03/23 13:14:00;;;;;;;0.50;0.50;;;9.10;99.90;;;;;;6088844;23;20175;-84
2021/03/23 13:16:31;;;;;;;0.50;0.50;;;6.90;99.90;;;;;;6090542;23;20155;-86
2021/03/23 13:19:06;;;;;;;0.60;0.60;;;7.00;99.90;;;;;;6094927;23;20195;-85
2021/03/23 13:22:23;;;;;;;;;;;;;;;;;;;;;
2021/03/23 13:25:20;;;;;;;;;;;;;;;;;;;;;
2021/03/23 13:31:55;;;;;;;;;;;;;;;;;;;;;
2021/03/23 13:35:00;;;;;;;0.60;0.60;;;7.50;99.90;;;;;;6095382;23;20683;-85
2021/03/23 13:37:52;;;;;;;;;;;;;;;;;;;;;
2021/03/23 13:40:46;;;;;;;0.57;0.57;;;7.20;99.90;;;;;;6039040;23;20612;-85
2021/03/23 13:46:38;;;;;;;0.60;0.60;;;7.10;99.90;;;;;;6052074;23;20183;-84
2021/03/23 13:51:58;;;;;;;0.60;0.60;;;7.30;99.90;;;;;;6088533;23;20210;-85